Terminal Aerodrome Forecast
Issued by NWS

Home | Current Version | Previous Version | Text Only | Print | Product List | Glossary On
Versions: 1 2 3 4 5 6 7 8 9 10 11 12 13
754
FTUS46 KSEW 222320
TAFHQM
TAF
KHQM 222320Z 2300/2324 24010KT P6SM SKC
     FM230900 26005KT 6SM BR OVC009
      TEMPO 2312/2316 1/2SM FG OVC005
     FM231900 24012KT P6SM BKN015=

USA.gov is the U.S. government's official web portal to all federal, state and local government web resources and services.